sensor_id;sensor_type;location;lat;lon;timestamp;pressure;altitude;pressure_sealevel;temperature;humidity
35435;BME280;21556;55.782;37.528;2023-02-26T00:01:16;97393.66;;;2.28;100.00
35435;BME280;21556;55.782;37.528;2023-02-26T00:03:42;97373.06;;;2.35;100.00
35435;BME280;21556;55.782;37.528;2023-02-26T00:06:08;97364.97;;;2.09;100.00
35435;BME280;21556;55.782;37.528;2023-02-26T00:08:34;97350.59;;;2.31;100.00
35435;BME280;21556;55.782;37.528;2023-02-26T00:11:00;97349.63;;;2.22;100.00
35435;BME280;21556;55.782;37.528;2023-02-26T00:13:28;97337.69;;;2.34;100.00
35435;BME280;21556;55.782;37.528;2023-02-26T00:15:59;97346.06;;;2.13;100.00
35435;BME280;21556;55.782;37.528;2023-02-26T00:18:26;97329.97;;;2.39;100.00
35435;BME280;21556;55.782;37.528;2023-02-26T00:20:52;97333.28;;;2.27;100.00
35435;BME280;21556;55.782;37.528;2023-02-26T00:23:18;97323.22;;;2.53;100.00
35435;BME280;21556;55.782;37.528;2023-02-26T00:25:45;97306.78;;;2.48;100.00
35435;BME280;21556;55.782;37.528;2023-02-26T00:28:11;97293.81;;;2.45;100.00
35435;BME280;21556;55.782;37.528;2023-02-26T00:30:38;97303.88;;;2.21;100.00
35435;BME280;21556;55.782;37.528;2023-02-26T00:33:04;97278.09;;;2.27;100.00
35435;BME280;21556;55.782;37.528;2023-02-26T00:35:31;97283.16;;;2.14;100.00
35435;BME280;21556;55.782;37.528;2023-02-26T00:38:03;97274.69;;;2.31;100.00
35435;BME280;21556;55.782;37.528;2023-02-26T00:40:37;97273.78;;;2.27;100.00
35435;BME280;21556;55.782;37.528;2023-02-26T00:43:06;97253.03;;;2.23;100.00
35435;BME280;21556;55.782;37.528;2023-02-26T00:45:33;97255.72;;;2.29;100.00
35435;BME280;21556;55.782;37.528;2023-02-26T00:53:43;97204.03;;;2.38;100.00
35435;BME280;21556;55.782;37.528;2023-02-26T00:56:13;97206.34;;;2.09;100.00
35435;BME280;21556;55.782;37.528;2023-02-26T00:58:38;97236.28;;;1.88;100.00
35435;BME280;21556;55.782;37.528;2023-02-26T01:01:04;97267.19;;;1.78;100.00
35435;BME280;21556;55.782;37.528;2023-02-26T01:03:31;97267.50;;;2.05;100.00
35435;BME280;21556;55.782;37.528;2023-02-26T01:05:57;97273.41;;;1.95;100.00
35435;BME280;21556;55.782;37.528;2023-02-26T01:08:29;97267.03;;;1.67;100.00
35435;BME280;21556;55.782;37.528;2023-02-26T01:10:56;97252.56;;;1.80;100.00
35435;BME280;21556;55.782;37.528;2023-02-26T01:13:22;97245.91;;;2.03;100.00
35435;BME280;21556;55.782;37.528;2023-02-26T01:15:52;97247.59;;;1.97;100.00
35435;BME280;21556;55.782;37.528;2023-02-26T01:18:47;97230.25;;;1.86;100.00
35435;BME280;21556;55.782;37.528;2023-02-26T01:21:26;97224.13;;;1.80;100.00
35435;BME280;21556;55.782;37.528;2023-02-26T01:23:53;97232.81;;;1.88;100.00
35435;BME280;21556;55.782;37.528;2023-02-26T01:26:26;97222.38;;;1.76;100.00
35435;BME280;21556;55.782;37.528;2023-02-26T01:28:52;97223.44;;;1.93;100.00
35435;BME280;21556;55.782;37.528;2023-02-26T01:31:32;97215.63;;;1.90;100.00
35435;BME280;21556;55.782;37.528;2023-02-26T01:34:08;97218.19;;;1.88;100.00
35435;BME280;21556;55.782;37.528;2023-02-26T01:36:43;97206.22;;;1.97;100.00
35435;BME280;21556;55.782;37.528;2023-02-26T01:41:54;97194.88;;;1.84;100.00
35435;BME280;21556;55.782;37.528;2023-02-26T01:44:40;97194.00;;;1.83;100.00
35435;BME280;21556;55.782;37.528;2023-02-26T01:47:12;97195.66;;;1.75;100.00
35435;BME280;21556;55.782;37.528;2023-02-26T01:49:40;97184.31;;;1.65;100.00
35435;BME280;21556;55.782;37.528;2023-02-26T01:55:11;97193.03;;;1.74;100.00
35435;BME280;21556;55.782;37.528;2023-02-26T01:57:37;97188.75;;;1.77;100.00
35435;BME280;21556;55.782;37.528;2023-02-26T02:00:04;97170.03;;;1.98;100.00
35435;BME280;21556;55.782;37.528;2023-02-26T02:02:38;97158.66;;;1.84;100.00
35435;BME280;21556;55.782;37.528;2023-02-26T02:05:24;97154.22;;;1.67;100.00
35435;BME280;21556;55.782;37.528;2023-02-26T02:07:53;97163.06;;;1.91;100.00
35435;BME280;21556;55.782;37.528;2023-02-26T02:10:19;97153.22;;;1.59;100.00
35435;BME280;21556;55.782;37.528;2023-02-26T02:18:28;97166.63;;;7.82;100.00
35435;BME280;21556;55.782;37.528;2023-02-26T02:23:47;97162.56;;;8.23;100.00
35435;BME280;21556;55.782;37.528;2023-02-26T02:34:26;97130.88;;;8.46;100.00
35435;BME280;21556;55.782;37.528;2023-02-26T02:37:01;97132.50;;;7.94;100.00
35435;BME280;21556;55.782;37.528;2023-02-26T02:39:36;97119.53;;;8.50;100.00
35435;BME280;21556;55.782;37.528;2023-02-26T02:45:02;97114.25;;;7.92;100.00
35435;BME280;21556;55.782;37.528;2023-02-26T02:47:31;97117.84;;;7.84;100.00
35435;BME280;21556;55.782;37.528;2023-02-26T02:52:43;97106.63;;;8.37;100.00
35435;BME280;21556;55.782;37.528;2023-02-26T02:55:23;97102.16;;;7.87;100.00
35435;BME280;21556;55.782;37.528;2023-02-26T02:57:57;97097.41;;;8.69;100.00
35435;BME280;21556;55.782;37.528;2023-02-26T03:00:27;97098.59;;;8.51;100.00
35435;BME280;21556;55.782;37.528;2023-02-26T03:05:32;97089.63;;;8.10;100.00
35435;BME280;21556;55.782;37.528;2023-02-26T03:08:02;97097.59;;;8.03;100.00
35435;BME280;21556;55.782;37.528;2023-02-26T03:10:31;97094.47;;;7.76;100.00
35435;BME280;21556;55.782;37.528;2023-02-26T03:12:57;97100.75;;;7.61;100.00
35435;BME280;21556;55.782;37.528;2023-02-26T03:15:36;97078.13;;;8.22;100.00
35435;BME280;21556;55.782;37.528;2023-02-26T03:18:10;97078.09;;;8.24;100.00
35435;BME280;21556;55.782;37.528;2023-02-26T03:21:09;97069.69;;;8.59;100.00
35435;BME280;21556;55.782;37.528;2023-02-26T03:24:02;97076.91;;;7.87;100.00
35435;BME280;21556;55.782;37.528;2023-02-26T03:26:54;97079.97;;;8.15;100.00
35435;BME280;21556;55.782;37.528;2023-02-26T03:31:59;97074.50;;;8.31;100.00
35435;BME280;21556;55.782;37.528;2023-02-26T03:37:14;97080.88;;;7.51;100.00
35435;BME280;21556;55.782;37.528;2023-02-26T03:39:46;97084.91;;;7.75;100.00
35435;BME280;21556;55.782;37.528;2023-02-26T03:42:27;97081.78;;;7.50;100.00
35435;BME280;21556;55.782;37.528;2023-02-26T03:45:28;97090.25;;;6.93;100.00
35435;BME280;21556;55.782;37.528;2023-02-26T03:47:56;97095.84;;;7.37;100.00
35435;BME280;21556;55.782;37.528;2023-02-26T03:50:47;97098.06;;;7.66;100.00
35435;BME280;21556;55.782;37.528;2023-02-26T03:53:48;97090.22;;;7.69;100.00
35435;BME280;21556;55.782;37.528;2023-02-26T03:56:36;97101.75;;;7.53;100.00
35435;BME280;21556;55.782;37.528;2023-02-26T03:59:07;97109.28;;;7.72;100.00
35435;BME280;21556;55.782;37.528;2023-02-26T04:02:00;97107.09;;;7.40;100.00
35435;BME280;21556;55.782;37.528;2023-02-26T04:04:47;97091.00;;;8.33;100.00
35435;BME280;21556;55.782;37.528;2023-02-26T04:07:16;97095.59;;;8.18;100.00
35435;BME280;21556;55.782;37.528;2023-02-26T04:09:45;97095.06;;;9.02;100.00
35435;BME280;21556;55.782;37.528;2023-02-26T04:12:12;97111.44;;;8.63;100.00
35435;BME280;21556;55.782;37.528;2023-02-26T04:14:42;97116.06;;;7.19;100.00
35435;BME280;21556;55.782;37.528;2023-02-26T04:17:08;97128.63;;;7.59;100.00
35435;BME280;21556;55.782;37.528;2023-02-26T04:19:34;97119.63;;;7.82;100.00
35435;BME280;21556;55.782;37.528;2023-02-26T04:22:00;97119.75;;;7.74;100.00
35435;BME280;21556;55.782;37.528;2023-02-26T04:24:26;97142.28;;;7.04;100.00
35435;BME280;21556;55.782;37.528;2023-02-26T04:26:56;97135.53;;;7.62;100.00
35435;BME280;21556;55.782;37.528;2023-02-26T04:29:22;97133.06;;;8.16;100.00
35435;BME280;21556;55.782;37.528;2023-02-26T04:31:48;97138.44;;;8.07;100.00
35435;BME280;21556;55.782;37.528;2023-02-26T04:34:14;97137.28;;;8.25;100.00
35435;BME280;21556;55.782;37.528;2023-02-26T04:36:40;97145.66;;;7.86;100.00
35435;BME280;21556;55.782;37.528;2023-02-26T04:39:09;97146.06;;;8.19;100.00
35435;BME280;21556;55.782;37.528;2023-02-26T04:41:36;97152.91;;;8.29;100.00
35435;BME280;21556;55.782;37.528;2023-02-26T04:44:03;97157.16;;;8.35;100.00
35435;BME280;21556;55.782;37.528;2023-02-26T04:46:31;97171.00;;;8.41;100.00
35435;BME280;21556;55.782;37.528;2023-02-26T04:48:57;97167.16;;;8.07;100.00
35435;BME280;21556;55.782;37.528;2023-02-26T04:51:23;97164.50;;;8.08;100.00
35435;BME280;21556;55.782;37.528;2023-02-26T04:53:51;97187.41;;;7.88;100.00
35435;BME280;21556;55.782;37.528;2023-02-26T04:56:18;97179.13;;;8.20;100.00
35435;BME280;21556;55.782;37.528;2023-02-26T04:58:44;97173.88;;;8.25;100.00
35435;BME280;21556;55.782;37.528;2023-02-26T05:01:16;97178.56;;;8.61;100.00
35435;BME280;21556;55.782;37.528;2023-02-26T05:03:41;97175.97;;;8.60;100.00
35435;BME280;21556;55.782;37.528;2023-02-26T05:06:08;97184.03;;;8.46;100.00
35435;BME280;21556;55.782;37.528;2023-02-26T05:08:35;97211.50;;;8.08;100.00
35435;BME280;21556;55.782;37.528;2023-02-26T05:11:06;97215.06;;;8.04;100.00
35435;BME280;21556;55.782;37.528;2023-02-26T05:13:31;97219.88;;;7.65;100.00
35435;BME280;21556;55.782;37.528;2023-02-26T05:15:58;97218.53;;;8.06;100.00
35435;BME280;21556;55.782;37.528;2023-02-26T05:18:23;97223.63;;;8.14;100.00
35435;BME280;21556;55.782;37.528;2023-02-26T05:20:53;97220.00;;;8.26;100.00
35435;BME280;21556;55.782;37.528;2023-02-26T05:23:20;97261.72;;;7.56;100.00
35435;BME280;21556;55.782;37.528;2023-02-26T05:25:47;97259.38;;;8.10;100.00
35435;BME280;21556;55.782;37.528;2023-02-26T05:28:14;97268.19;;;7.99;100.00
35435;BME280;21556;55.782;37.528;2023-02-26T05:30:41;97246.34;;;8.07;100.00
35435;BME280;21556;55.782;37.528;2023-02-26T05:33:07;97252.47;;;8.06;100.00
35435;BME280;21556;55.782;37.528;2023-02-26T05:35:33;97252.25;;;8.20;100.00
35435;BME280;21556;55.782;37.528;2023-02-26T05:37:59;97265.31;;;8.22;100.00
35435;BME280;21556;55.782;37.528;2023-02-26T05:40:24;97263.19;;;8.53;100.00
35435;BME280;21556;55.782;37.528;2023-02-26T05:42:50;97277.41;;;8.27;100.00
35435;BME280;21556;55.782;37.528;2023-02-26T05:45:17;97279.88;;;8.42;100.00
35435;BME280;21556;55.782;37.528;2023-02-26T05:47:45;97280.97;;;8.25;100.00
35435;BME280;21556;55.782;37.528;2023-02-26T05:50:11;97284.16;;;8.50;100.00
35435;BME280;21556;55.782;37.528;2023-02-26T05:52:37;97299.06;;;8.40;100.00
35435;BME280;21556;55.782;37.528;2023-02-26T05:55:04;97296.22;;;8.57;100.00
35435;BME280;21556;55.782;37.528;2023-02-26T05:57:31;97300.88;;;8.33;100.00
35435;BME280;21556;55.782;37.528;2023-02-26T05:59:56;97295.94;;;8.09;100.00
35435;BME280;21556;55.782;37.528;2023-02-26T06:02:22;97308.91;;;8.16;100.00
35435;BME280;21556;55.782;37.528;2023-02-26T06:04:48;97296.66;;;8.88;100.00
35435;BME280;21556;55.782;37.528;2023-02-26T06:07:14;97295.09;;;8.75;100.00
35435;BME280;21556;55.782;37.528;2023-02-26T06:09:40;97320.47;;;7.94;100.00
35435;BME280;21556;55.782;37.528;2023-02-26T06:12:07;97311.50;;;8.18;100.00
35435;BME280;21556;55.782;37.528;2023-02-26T06:14:34;97317.84;;;8.70;100.00
35435;BME280;21556;55.782;37.528;2023-02-26T06:17:03;97319.78;;;8.55;100.00
35435;BME280;21556;55.782;37.528;2023-02-26T06:19:29;97327.72;;;8.48;100.00
35435;BME280;21556;55.782;37.528;2023-02-26T06:21:55;97331.75;;;7.99;100.00
35435;BME280;21556;55.782;37.528;2023-02-26T06:24:23;97323.97;;;8.67;100.00
35435;BME280;21556;55.782;37.528;2023-02-26T06:26:49;97331.81;;;8.67;100.00
35435;BME280;21556;55.782;37.528;2023-02-26T06:29:15;97333.63;;;7.86;100.00
35435;BME280;21556;55.782;37.528;2023-02-26T06:31:43;97340.13;;;8.29;100.00
35435;BME280;21556;55.782;37.528;2023-02-26T06:34:10;97338.09;;;8.52;100.00
35435;BME280;21556;55.782;37.528;2023-02-26T06:36:36;97341.56;;;8.53;100.00
35435;BME280;21556;55.782;37.528;2023-02-26T06:39:02;97342.63;;;8.38;100.00
35435;BME280;21556;55.782;37.528;2023-02-26T06:41:28;97349.41;;;8.53;100.00
35435;BME280;21556;55.782;37.528;2023-02-26T06:43:54;97368.84;;;8.29;100.00
35435;BME280;21556;55.782;37.528;2023-02-26T06:46:20;97351.84;;;8.66;100.00
35435;BME280;21556;55.782;37.528;2023-02-26T06:48:46;97364.09;;;8.63;100.00
35435;BME280;21556;55.782;37.528;2023-02-26T06:51:12;97360.34;;;8.11;100.00
35435;BME280;21556;55.782;37.528;2023-02-26T06:53:38;97353.66;;;8.63;100.00
35435;BME280;21556;55.782;37.528;2023-02-26T06:56:04;97368.47;;;7.82;100.00
35435;BME280;21556;55.782;37.528;2023-02-26T06:58:31;97379.81;;;8.61;100.00
35435;BME280;21556;55.782;37.528;2023-02-26T07:00:57;97376.41;;;8.55;100.00
35435;BME280;21556;55.782;37.528;2023-02-26T07:03:22;97385.81;;;7.89;100.00
35435;BME280;21556;55.782;37.528;2023-02-26T07:05:49;97385.72;;;8.76;100.00
35435;BME280;21556;55.782;37.528;2023-02-26T07:08:14;97399.13;;;8.50;100.00
35435;BME280;21556;55.782;37.528;2023-02-26T07:10:41;97392.16;;;8.49;100.00
35435;BME280;21556;55.782;37.528;2023-02-26T07:13:08;97403.44;;;8.54;100.00
35435;BME280;21556;55.782;37.528;2023-02-26T07:15:33;97401.13;;;8.23;100.00
35435;BME280;21556;55.782;37.528;2023-02-26T07:17:59;97392.66;;;8.80;100.00
35435;BME280;21556;55.782;37.528;2023-02-26T07:20:28;97417.75;;;8.91;100.00
35435;BME280;21556;55.782;37.528;2023-02-26T07:22:59;97408.47;;;8.67;100.00
35435;BME280;21556;55.782;37.528;2023-02-26T07:25:32;97398.13;;;9.23;100.00
35435;BME280;21556;55.782;37.528;2023-02-26T07:28:00;97395.31;;;9.35;100.00
35435;BME280;21556;55.782;37.528;2023-02-26T07:30:26;97414.03;;;8.38;100.00
35435;BME280;21556;55.782;37.528;2023-02-26T07:32:52;97406.03;;;9.19;100.00
35435;BME280;21556;55.782;37.528;2023-02-26T07:35:18;97418.19;;;8.56;100.00
35435;BME280;21556;55.782;37.528;2023-02-26T07:37:45;97420.44;;;8.87;100.00
35435;BME280;21556;55.782;37.528;2023-02-26T07:40:11;97409.28;;;9.37;100.00
35435;BME280;21556;55.782;37.528;2023-02-26T07:42:38;97417.44;;;9.16;100.00
35435;BME280;21556;55.782;37.528;2023-02-26T07:45:04;97404.50;;;9.05;100.00
35435;BME280;21556;55.782;37.528;2023-02-26T07:47:31;97410.41;;;9.18;100.00
35435;BME280;21556;55.782;37.528;2023-02-26T07:50:00;97411.84;;;9.39;100.00
35435;BME280;21556;55.782;37.528;2023-02-26T07:52:28;97431.66;;;8.95;100.00
35435;BME280;21556;55.782;37.528;2023-02-26T07:54:54;97441.13;;;9.05;100.00
35435;BME280;21556;55.782;37.528;2023-02-26T07:57:20;97419.94;;;9.24;100.00
35435;BME280;21556;55.782;37.528;2023-02-26T07:59:46;97427.34;;;9.53;100.00
35435;BME280;21556;55.782;37.528;2023-02-26T08:02:12;97441.41;;;9.46;100.00
35435;BME280;21556;55.782;37.528;2023-02-26T08:04:38;97441.56;;;9.35;100.00
35435;BME280;21556;55.782;37.528;2023-02-26T08:07:05;97440.44;;;9.53;100.00
35435;BME280;21556;55.782;37.528;2023-02-26T08:09:32;97437.78;;;9.56;100.00
35435;BME280;21556;55.782;37.528;2023-02-26T08:11:58;97444.44;;;8.46;100.00
35435;BME280;21556;55.782;37.528;2023-02-26T08:14:24;97456.91;;;8.98;100.00
35435;BME280;21556;55.782;37.528;2023-02-26T08:16:50;97456.34;;;9.40;100.00
35435;BME280;21556;55.782;37.528;2023-02-26T08:19:18;97442.19;;;8.90;100.00
35435;BME280;21556;55.782;37.528;2023-02-26T08:21:43;97460.06;;;9.21;100.00
35435;BME280;21556;55.782;37.528;2023-02-26T08:24:10;97448.59;;;9.87;100.00
35435;BME280;21556;55.782;37.528;2023-02-26T08:26:37;97468.38;;;8.86;100.00
35435;BME280;21556;55.782;37.528;2023-02-26T08:29:04;97467.56;;;8.82;100.00
35435;BME280;21556;55.782;37.528;2023-02-26T08:31:33;97482.06;;;9.08;100.00
35435;BME280;21556;55.782;37.528;2023-02-26T08:34:00;97473.69;;;9.48;100.00
35435;BME280;21556;55.782;37.528;2023-02-26T08:36:26;97495.13;;;9.09;100.00
35435;BME280;21556;55.782;37.528;2023-02-26T08:38:52;97492.31;;;8.51;100.00
35435;BME280;21556;55.782;37.528;2023-02-26T08:41:18;97490.72;;;9.13;100.00
35435;BME280;21556;55.782;37.528;2023-02-26T08:43:44;97517.06;;;8.96;100.00
35435;BME280;21556;55.782;37.528;2023-02-26T08:46:09;97502.09;;;9.09;100.00
35435;BME280;21556;55.782;37.528;2023-02-26T08:48:35;97523.13;;;9.01;100.00
35435;BME280;21556;55.782;37.528;2023-02-26T08:51:01;97506.09;;;9.36;100.00
35435;BME280;21556;55.782;37.528;2023-02-26T08:53:30;97521.09;;;9.22;100.00
35435;BME280;21556;55.782;37.528;2023-02-26T08:55:55;97517.03;;;9.01;100.00
35435;BME280;21556;55.782;37.528;2023-02-26T08:58:21;97517.16;;;8.90;100.00
35435;BME280;21556;55.782;37.528;2023-02-26T09:00:47;97517.28;;;9.49;100.00
35435;BME280;21556;55.782;37.528;2023-02-26T09:03:14;97530.47;;;7.61;100.00
35435;BME280;21556;55.782;37.528;2023-02-26T09:05:40;97529.00;;;9.20;100.00
35435;BME280;21556;55.782;37.528;2023-02-26T09:08:07;97529.28;;;8.96;100.00
35435;BME280;21556;55.782;37.528;2023-02-26T09:10:33;97545.97;;;8.84;100.00
35435;BME280;21556;55.782;37.528;2023-02-26T09:12:59;97541.06;;;9.30;100.00
35435;BME280;21556;55.782;37.528;2023-02-26T09:15:28;97555.31;;;9.06;100.00
35435;BME280;21556;55.782;37.528;2023-02-26T09:17:56;97556.84;;;9.24;100.00
35435;BME280;21556;55.782;37.528;2023-02-26T09:20:23;97565.97;;;7.85;100.00
35435;BME280;21556;55.782;37.528;2023-02-26T09:22:49;97567.47;;;9.10;100.00
35435;BME280;21556;55.782;37.528;2023-02-26T09:25:15;97578.19;;;8.87;100.00
35435;BME280;21556;55.782;37.528;2023-02-26T09:27:41;97566.97;;;8.76;100.00
35435;BME280;21556;55.782;37.528;2023-02-26T09:30:08;97570.94;;;9.11;100.00
35435;BME280;21556;55.782;37.528;2023-02-26T09:32:35;97587.03;;;8.74;100.00
35435;BME280;21556;55.782;37.528;2023-02-26T09:35:00;97586.41;;;8.48;100.00
35435;BME280;21556;55.782;37.528;2023-02-26T09:37:29;97574.66;;;8.91;100.00
35435;BME280;21556;55.782;37.528;2023-02-26T09:39:55;97577.69;;;9.33;100.00
35435;BME280;21556;55.782;37.528;2023-02-26T09:42:52;97589.47;;;9.65;100.00
35435;BME280;21556;55.782;37.528;2023-02-26T09:45:43;97583.81;;;9.96;100.00
35435;BME280;21556;55.782;37.528;2023-02-26T09:48:13;97586.38;;;9.32;100.00
35435;BME280;21556;55.782;37.528;2023-02-26T09:50:44;97585.97;;;9.64;100.00
35435;BME280;21556;55.782;37.528;2023-02-26T09:53:29;97592.47;;;9.34;100.00
35435;BME280;21556;55.782;37.528;2023-02-26T09:56:15;97604.59;;;9.43;99.10
35435;BME280;21556;55.782;37.528;2023-02-26T09:58:42;97598.97;;;9.72;99.37
35435;BME280;21556;55.782;37.528;2023-02-26T10:03:53;97606.50;;;9.29;100.00
35435;BME280;21556;55.782;37.528;2023-02-26T10:06:32;97595.09;;;9.33;100.00
35435;BME280;21556;55.782;37.528;2023-02-26T10:09:50;97604.81;;;9.26;100.00
35435;BME280;21556;55.782;37.528;2023-02-26T10:12:22;97624.91;;;9.23;100.00
35435;BME280;21556;55.782;37.528;2023-02-26T10:20:22;97613.03;;;8.88;100.00
35435;BME280;21556;55.782;37.528;2023-02-26T10:23:03;97619.03;;;8.99;100.00
35435;BME280;21556;55.782;37.528;2023-02-26T10:26:01;97631.31;;;8.91;100.00
35435;BME280;21556;55.782;37.528;2023-02-26T10:34:46;97633.63;;;9.20;100.00
35435;BME280;21556;55.782;37.528;2023-02-26T10:40:00;97647.81;;;9.01;100.00
35435;BME280;21556;55.782;37.528;2023-02-26T10:45:56;97652.94;;;9.07;100.00
35435;BME280;21556;55.782;37.528;2023-02-26T10:48:52;97646.81;;;9.12;100.00
35435;BME280;21556;55.782;37.528;2023-02-26T10:51:28;97657.31;;;9.08;100.00
35435;BME280;21556;55.782;37.528;2023-02-26T10:54:19;97655.38;;;9.27;99.64
35435;BME280;21556;55.782;37.528;2023-02-26T10:56:49;97646.56;;;9.34;99.33
35435;BME280;21556;55.782;37.528;2023-02-26T10:59:15;97659.84;;;9.17;99.91
35435;BME280;21556;55.782;37.528;2023-02-26T11:01:42;97654.75;;;9.00;99.25
35435;BME280;21556;55.782;37.528;2023-02-26T11:04:15;97652.94;;;9.11;100.00
35435;BME280;21556;55.782;37.528;2023-02-26T11:06:50;97663.41;;;9.11;97.82
35435;BME280;21556;55.782;37.528;2023-02-26T11:12:05;97659.81;;;9.19;98.91
35435;BME280;21556;55.782;37.528;2023-02-26T11:14:33;97673.16;;;8.89;99.80
35435;BME280;21556;55.782;37.528;2023-02-26T11:17:05;97680.59;;;8.29;100.00
35435;BME280;21556;55.782;37.528;2023-02-26T11:19:38;97677.09;;;8.27;100.00
35435;BME280;21556;55.782;37.528;2023-02-26T11:22:11;97669.91;;;8.63;100.00
35435;BME280;21556;55.782;37.528;2023-02-26T11:24:43;97666.84;;;8.03;100.00
35435;BME280;21556;55.782;37.528;2023-02-26T11:27:39;97684.31;;;7.87;100.00
35435;BME280;21556;55.782;37.528;2023-02-26T11:30:10;97669.94;;;8.61;100.00
35435;BME280;21556;55.782;37.528;2023-02-26T11:32:39;97671.97;;;8.15;100.00
35435;BME280;21556;55.782;37.528;2023-02-26T11:35:07;97669.38;;;9.21;99.11
35435;BME280;21556;55.782;37.528;2023-02-26T11:37:35;97681.72;;;9.84;93.73
35435;BME280;21556;55.782;37.528;2023-02-26T11:40:15;97671.34;;;9.01;96.41
35435;BME280;21556;55.782;37.528;2023-02-26T11:42:57;97682.53;;;9.15;94.56
35435;BME280;21556;55.782;37.528;2023-02-26T11:45:24;97678.16;;;9.14;93.28
35435;BME280;21556;55.782;37.528;2023-02-26T11:47:58;97666.91;;;9.06;95.92
35435;BME280;21556;55.782;37.528;2023-02-26T11:50:28;97706.63;;;8.48;98.34
35435;BME280;21556;55.782;37.528;2023-02-26T11:53:03;97671.16;;;9.19;98.29
35435;BME280;21556;55.782;37.528;2023-02-26T11:55:38;97673.13;;;8.92;95.02
35435;BME280;21556;55.782;37.528;2023-02-26T11:58:21;97693.75;;;9.28;95.91
35435;BME280;21556;55.782;37.528;2023-02-26T12:00:51;97704.28;;;9.19;94.46
35435;BME280;21556;55.782;37.528;2023-02-26T12:03:24;97704.47;;;8.99;98.25
35435;BME280;21556;55.782;37.528;2023-02-26T12:05:51;97708.47;;;8.24;100.00
35435;BME280;21556;55.782;37.528;2023-02-26T12:08:23;97694.84;;;9.02;98.10
35435;BME280;21556;55.782;37.528;2023-02-26T12:22:25;97717.69;;;8.83;100.00
35435;BME280;21556;55.782;37.528;2023-02-26T12:33:44;97729.97;;;8.75;100.00
35435;BME280;21556;55.782;37.528;2023-02-26T12:45:11;97762.78;;;6.73;100.00
35435;BME280;21556;55.782;37.528;2023-02-26T12:47:51;97749.78;;;6.77;100.00
35435;BME280;21556;55.782;37.528;2023-02-26T12:52:56;97767.13;;;7.27;100.00
35435;BME280;21556;55.782;37.528;2023-02-26T13:09:31;97805.22;;;6.28;100.00
35435;BME280;21556;55.782;37.528;2023-02-26T13:14:56;97813.63;;;5.72;100.00
35435;BME280;21556;55.782;37.528;2023-02-26T13:20:31;97811.28;;;6.10;100.00
35435;BME280;21556;55.782;37.528;2023-02-26T13:23:12;97830.09;;;5.69;100.00
35435;BME280;21556;55.782;37.528;2023-02-26T13:25:59;97825.84;;;5.84;100.00
35435;BME280;21556;55.782;37.528;2023-02-26T13:28:49;97820.69;;;5.90;100.00
35435;BME280;21556;55.782;37.528;2023-02-26T13:33:58;97833.91;;;6.33;100.00
35435;BME280;21556;55.782;37.528;2023-02-26T13:36:28;97841.63;;;6.11;100.00
35435;BME280;21556;55.782;37.528;2023-02-26T13:39:09;97857.06;;;5.82;100.00
35435;BME280;21556;55.782;37.528;2023-02-26T13:41:48;97852.94;;;6.16;100.00
35435;BME280;21556;55.782;37.528;2023-02-26T13:44:31;97848.28;;;5.65;100.00
35435;BME280;21556;55.782;37.528;2023-02-26T13:52:53;97870.13;;;5.91;100.00
35435;BME280;21556;55.782;37.528;2023-02-26T13:56:04;97881.19;;;5.58;100.00
35435;BME280;21556;55.782;37.528;2023-02-26T13:58:40;97889.94;;;5.69;100.00
35435;BME280;21556;55.782;37.528;2023-02-26T14:01:14;97901.31;;;5.84;100.00
35435;BME280;21556;55.782;37.528;2023-02-26T14:12:00;97928.09;;;4.76;100.00
35435;BME280;21556;55.782;37.528;2023-02-26T14:14:34;97921.50;;;5.07;100.00
35435;BME280;21556;55.782;37.528;2023-02-26T14:24:38;97956.19;;;4.36;100.00
35435;BME280;21556;55.782;37.528;2023-02-26T14:32:37;97989.97;;;4.39;100.00
35435;BME280;21556;55.782;37.528;2023-02-26T14:35:43;97975.13;;;3.73;100.00
35435;BME280;21556;55.782;37.528;2023-02-26T14:38:48;97981.69;;;4.68;100.00
35435;BME280;21556;55.782;37.528;2023-02-26T14:44:00;97991.00;;;4.50;100.00
35435;BME280;21556;55.782;37.528;2023-02-26T14:46:40;97979.66;;;4.45;100.00
35435;BME280;21556;55.782;37.528;2023-02-26T14:49:37;97988.28;;;4.43;100.00
35435;BME280;21556;55.782;37.528;2023-02-26T14:52:42;97986.97;;;4.75;100.00
35435;BME280;21556;55.782;37.528;2023-02-26T14:55:14;98007.59;;;4.62;100.00
35435;BME280;21556;55.782;37.528;2023-02-26T15:14:10;98035.97;;;4.49;100.00
35435;BME280;21556;55.782;37.528;2023-02-26T15:16:48;98038.75;;;4.62;100.00
35435;BME280;21556;55.782;37.528;2023-02-26T15:24:53;98047.00;;;4.95;100.00
35435;BME280;21556;55.782;37.528;2023-02-26T15:27:49;98055.13;;;4.56;100.00
35435;BME280;21556;55.782;37.528;2023-02-26T15:30:15;98058.44;;;4.44;100.00
35435;BME280;21556;55.782;37.528;2023-02-26T15:32:42;98060.31;;;4.54;100.00
35435;BME280;21556;55.782;37.528;2023-02-26T15:35:20;98049.34;;;4.78;100.00
35435;BME280;21556;55.782;37.528;2023-02-26T15:37:52;98073.94;;;4.40;100.00
35435;BME280;21556;55.782;37.528;2023-02-26T15:40:21;98069.81;;;3.99;100.00
35435;BME280;21556;55.782;37.528;2023-02-26T15:42:52;98069.84;;;4.57;100.00
35435;BME280;21556;55.782;37.528;2023-02-26T15:45:25;98074.31;;;4.66;100.00
35435;BME280;21556;55.782;37.528;2023-02-26T15:47:59;98079.38;;;4.56;100.00
35435;BME280;21556;55.782;37.528;2023-02-26T15:50:36;98087.00;;;4.44;100.00
35435;BME280;21556;55.782;37.528;2023-02-26T15:53:04;98088.72;;;4.45;100.00
35435;BME280;21556;55.782;37.528;2023-02-26T15:55:36;98093.16;;;4.52;100.00
35435;BME280;21556;55.782;37.528;2023-02-26T15:58:08;98090.75;;;4.07;100.00
35435;BME280;21556;55.782;37.528;2023-02-26T16:00:36;98111.53;;;4.10;100.00
35435;BME280;21556;55.782;37.528;2023-02-26T16:03:03;98107.66;;;4.37;100.00